South Woodstock, Connecticut
Current Conditions -  °F | °C
As of 12:52 PM on Saturday 25 Oct 2014 (Local Time) from KIJD Reporting Station
Clear Clear  
Wind Chill: 62°   Ceiling: Unl
Heat Index: 62°   Visibility: 10mi
Dew Point: 40°   Wind: 6mph
Humidity: 44%   Direction: 270°W
Pressure: 29.73"   Gusts: NA
Location:  41.93°N, 71.96°W
Report Text: KIJD 251652Z AUTO 27005KT 10SM CLR 17/04 A2973 RMK AO2 SLP066 T01670044
Loading
Personal Weather Stations






























Interactive Weather Map
Tropical Storm Tracking
New forecast layout! Learn more

10-Day Weather Forecast

Advertisements
Track Severe Weather on mobile